Terminal Aerodrome Forecast
Issued by NWS Charleston, WV

Current Version | Previous Version | Graphics & Text | Print | Product List | Glossary On
Versions: 1 2 3 4 5 6 7 8 9 10 11 12 13 14 15 16 17 18 19 20 21 22 23 24
326
FTUS41 KRLX 131625 AAB
TAFBKW
TAF AMD
KBKW 131625Z 1316/1412 32012G22KT 3SM -SHSN SCT020 BKN030
      TEMPO 1316/1318 2SM -SHSN BR BKN020
     FM131800 32015G24KT 6SM -SHSN BKN030
      TEMPO 1318/1319 3SM -SHSN
     FM132100 31008KT P6SM SCT030
     FM140300 VRB03KT P6SM SKC
     FM141100 VRB03KT P6SM BKN150=

USA.gov is the U.S. government's official web portal to all federal, state and local government web resources and services.